Time;durP1;ratioP1;P1;durP2;ratioP2;P2;SDS_P1;SDS_P2;PMS_P1;PMS_P2;Temp;Humidity;BMP_temperature;BMP_pressure;BME280_temperature;BME280_humidity;BME280_pressure;Samples;Min_cycle;Max_cycle;Signal;HPM_P1;HPM_P2
2023/09/17 00:01:28;;;;;;;7.38;5.32;;;;;;;;;;4925071;29;20028;-78
2023/09/17 00:03:53;;;;;;;7.75;5.88;;;;;;;;;;4924061;29;20055;-78
2023/09/17 00:06:19;;;;;;;6.07;5.20;;;;;;;;;;4921468;29;20123;-77
2023/09/17 00:08:44;;;;;;;6.65;5.20;;;;;;;;;;4919763;29;20040;-78
2023/09/17 00:11:09;;;;;;;7.55;6.00;;;;;;;;;;4919402;29;20043;-78
2023/09/17 00:13:35;;;;;;;6.55;5.07;;;;;;;;;;4932020;29;20032;-78
2023/09/17 00:16:00;;;;;;;8.32;5.80;;;;;;;;;;4925886;29;20103;-78
2023/09/17 00:18:25;;;;;;;8.77;6.60;;;;;;;;;;4922742;29;20531;-78
2023/09/17 00:20:51;;;;;;;10.07;6.47;;;;;;;;;;4921946;29;20477;-78
2023/09/17 00:23:16;;;;;;;8.00;6.63;;;;;;;;;;4919626;29;20086;-78
2023/09/17 00:25:42;;;;;;;8.70;6.32;;;;;;;;;;4930289;29;20020;-78
2023/09/17 00:28:07;;;;;;;8.20;6.55;;;;;;;;;;4926445;29;20035;-78
2023/09/17 00:30:32;;;;;;;7.53;5.47;;;;;;;;;;4924424;29;20453;-78
2023/09/17 00:32:58;;;;;;;7.55;6.35;;;;;;;;;;4923488;29;20028;-78
2023/09/17 00:35:23;;;;;;;8.43;6.10;;;;;;;;;;4921937;29;20076;-78
2023/09/17 00:37:48;;;;;;;6.90;5.15;;;;;;;;;;4924944;29;20031;-78
2023/09/17 00:40:13;;;;;;;5.80;4.43;;;;;;;;;;4927446;29;20044;-78
2023/09/17 00:42:40;;;;;;;6.63;5.22;;;;;;;;;;4925326;29;20272;-78
2023/09/17 00:45:06;;;;;;;6.13;5.00;;;;;;;;;;4926577;29;20530;-78
2023/09/17 00:47:31;;;;;;;5.93;4.43;;;;;;;;;;4921776;29;20040;-78
2023/09/17 00:49:57;;;;;;;6.50;4.70;;;;;;;;;;4921690;29;20036;-78
2023/09/17 00:52:23;;;;;;;6.40;5.07;;;;;;;;;;4930165;29;20068;-78
2023/09/17 00:54:49;;;;;;;6.15;4.50;;;;;;;;;;4928838;29;20500;-78
2023/09/17 00:57:15;;;;;;;7.60;5.85;;;;;;;;;;4922988;29;20040;-78
2023/09/17 00:59:41;;;;;;;7.00;5.60;;;;;;;;;;4925496;29;20085;-78
2023/09/17 01:02:06;;;;;;;8.60;5.85;;;;;;;;;;4922009;29;20032;-77
2023/09/17 01:04:31;;;;;;;6.75;5.75;;;;;;;;;;4922311;29;20032;-78
2023/09/17 01:06:58;;;;;;;7.93;6.45;;;;;;;;;;4926486;29;20488;-78
2023/09/17 01:09:25;;;;;;;8.07;5.95;;;;;;;;;;4926410;29;20055;-78
2023/09/17 01:11:51;;;;;;;6.15;4.95;;;;;;;;;;4926396;29;20032;-79
2023/09/17 01:14:16;;;;;;;7.07;4.38;;;;;;;;;;4924253;29;20028;-78
2023/09/17 01:16:45;;;;;;;6.68;4.90;;;;;;;;;;4926019;29;20024;-78
2023/09/17 01:19:36;;;;;;;6.05;4.90;;;;;;;;;;4921222;29;20087;-78
2023/09/17 01:22:13;;;;;;;7.35;5.22;;;;;;;;;;4926834;29;20070;-77
2023/09/17 01:24:57;;;;;;;7.80;6.00;;;;;;;;;;4931693;29;20030;-78
2023/09/17 01:27:23;;;;;;;8.55;5.90;;;;;;;;;;4921705;29;20103;-79
2023/09/17 01:29:49;;;;;;;8.90;6.35;;;;;;;;;;4923779;29;20432;-78
2023/09/17 01:32:16;;;;;;;10.15;6.82;;;;;;;;;;4925823;29;20033;-78
2023/09/17 01:34:42;;;;;;;9.38;6.72;;;;;;;;;;4931283;29;20023;-78
2023/09/17 01:37:10;;;;;;;8.85;6.38;;;;;;;;;;4922453;29;20060;-77
2023/09/17 01:39:40;;;;;;;9.88;7.35;;;;;;;;;;4923492;29;20020;-78
2023/09/17 01:42:06;;;;;;;9.88;7.05;;;;;;;;;;4923625;29;20025;-78
2023/09/17 01:44:32;;;;;;;9.68;6.82;;;;;;;;;;4936454;29;20046;-78
2023/09/17 01:47:00;;;;;;;6.95;5.88;;;;;;;;;;4922411;29;20090;-78
2023/09/17 01:49:25;;;;;;;8.45;6.57;;;;;;;;;;4925488;29;20087;-78
2023/09/17 01:51:52;;;;;;;6.10;5.03;;;;;;;;;;4928407;29;20031;-78
2023/09/17 01:54:17;;;;;;;6.68;5.28;;;;;;;;;;4920848;29;20036;-77
2023/09/17 01:56:43;;;;;;;8.32;6.07;;;;;;;;;;4924629;29;20031;-78
2023/09/17 01:59:08;;;;;;;7.47;5.88;;;;;;;;;;4912857;29;20051;-78
2023/09/17 02:01:33;;;;;;;7.95;6.30;;;;;;;;;;4925197;29;20032;-77
2023/09/17 02:03:58;;;;;;;8.98;6.70;;;;;;;;;;4930593;29;20051;-77
2023/09/17 02:06:24;;;;;;;7.45;6.13;;;;;;;;;;4923367;29;20036;-77
2023/09/17 02:08:49;;;;;;;6.90;5.60;;;;;;;;;;4926445;29;20039;-77
2023/09/17 02:11:14;;;;;;;8.15;6.25;;;;;;;;;;4922332;29;20032;-77
2023/09/17 02:13:39;;;;;;;6.87;5.60;;;;;;;;;;4920881;29;20517;-78
2023/09/17 02:16:05;;;;;;;7.45;6.30;;;;;;;;;;4923717;29;20280;-77
2023/09/17 02:18:30;;;;;;;6.30;4.75;;;;;;;;;;4924815;29;20564;-78
2023/09/17 02:20:55;;;;;;;7.85;5.22;;;;;;;;;;4924745;29;20060;-78
2023/09/17 02:23:20;;;;;;;7.80;6.30;;;;;;;;;;4923468;29;20158;-77
2023/09/17 02:25:46;;;;;;;9.55;6.60;;;;;;;;;;4928918;29;20096;-78
2023/09/17 02:28:13;;;;;;;6.68;5.43;;;;;;;;;;4923524;29;20059;-78
2023/09/17 02:30:38;;;;;;;7.68;6.55;;;;;;;;;;4926541;29;20059;-78
2023/09/17 02:33:03;;;;;;;10.90;8.45;;;;;;;;;;4922687;29;20068;-78
2023/09/17 02:35:28;;;;;;;8.63;7.15;;;;;;;;;;4920959;29;20508;-78
2023/09/17 02:37:54;;;;;;;13.48;6.70;;;;;;;;;;4922152;29;20040;-77
2023/09/17 02:40:19;;;;;;;8.63;6.57;;;;;;;;;;4923246;29;20040;-77
2023/09/17 02:42:45;;;;;;;9.73;6.40;;;;;;;;;;4925765;29;20020;-78
2023/09/17 02:45:10;;;;;;;7.18;5.63;;;;;;;;;;4926012;29;20630;-78
2023/09/17 02:47:35;;;;;;;9.52;8.15;;;;;;;;;;4929315;29;20446;-77
2023/09/17 02:50:01;;;;;;;7.13;6.22;;;;;;;;;;4932945;29;20035;-77
2023/09/17 02:52:27;;;;;;;9.70;6.75;;;;;;;;;;4935244;29;20408;-77
2023/09/17 02:54:54;;;;;;;9.60;6.00;;;;;;;;;;4927611;29;20042;-78
2023/09/17 02:57:19;;;;;;;10.65;8.40;;;;;;;;;;4927392;29;20051;-78
2023/09/17 02:59:44;;;;;;;10.40;8.73;;;;;;;;;;4932808;29;20445;-78
2023/09/17 03:02:09;;;;;;;9.15;7.60;;;;;;;;;;4928886;29;20282;-78
2023/09/17 03:04:36;;;;;;;9.20;8.00;;;;;;;;;;4932257;29;20039;-77
2023/09/17 03:07:04;;;;;;;9.80;7.93;;;;;;;;;;4924091;29;20043;-78
2023/09/17 03:09:30;;;;;;;9.68;7.05;;;;;;;;;;4930876;29;20064;-78
2023/09/17 03:11:55;;;;;;;10.90;7.55;;;;;;;;;;4922346;29;20051;-78
2023/09/17 03:14:20;;;;;;;8.13;6.45;;;;;;;;;;4935629;29;20024;-77
2023/09/17 03:16:45;;;;;;;8.60;6.90;;;;;;;;;;4931223;29;20492;-77
2023/09/17 03:19:12;;;;;;;11.25;6.97;;;;;;;;;;4927966;29;20028;-77
2023/09/17 03:21:40;;;;;;;8.82;6.75;;;;;;;;;;4925672;29;20043;-78
2023/09/17 03:24:06;;;;;;;8.52;6.97;;;;;;;;;;4933353;29;20031;-78
2023/09/17 03:26:31;;;;;;;8.95;7.32;;;;;;;;;;4933351;29;20020;-78
2023/09/17 03:28:58;;;;;;;10.77;8.07;;;;;;;;;;4928012;29;20104;-78
2023/09/17 03:31:24;;;;;;;10.40;8.20;;;;;;;;;;4928496;29;20073;-77
2023/09/17 03:33:50;;;;;;;9.30;7.32;;;;;;;;;;4929425;29;20507;-78
2023/09/17 03:36:15;;;;;;;10.82;8.05;;;;;;;;;;4921981;29;20028;-78
2023/09/17 03:38:40;;;;;;;10.57;7.70;;;;;;;;;;4931637;29;20032;-78
2023/09/17 03:41:05;;;;;;;11.30;9.57;;;;;;;;;;4929303;29;20024;-78
2023/09/17 03:43:31;;;;;;;12.30;9.60;;;;;;;;;;4931394;29;20523;-78
2023/09/17 03:45:57;;;;;;;9.55;7.75;;;;;;;;;;4940054;29;20050;-78
2023/09/17 03:48:22;;;;;;;9.38;7.82;;;;;;;;;;4931488;29;20032;-78
2023/09/17 03:50:48;;;;;;;9.73;8.10;;;;;;;;;;4933018;29;20031;-78
2023/09/17 03:53:14;;;;;;;12.68;8.10;;;;;;;;;;4937179;29;20067;-78
2023/09/17 03:55:40;;;;;;;9.38;7.95;;;;;;;;;;4931421;29;20035;-78
2023/09/17 03:58:05;;;;;;;12.18;8.63;;;;;;;;;;4931247;29;20551;-78
2023/09/17 04:00:36;;;;;;;11.00;8.27;;;;;;;;;;4928171;29;20519;-78
2023/09/17 04:03:01;;;;;;;9.88;7.57;;;;;;;;;;4914406;29;20123;-78
2023/09/17 04:05:28;;;;;;;8.68;7.53;;;;;;;;;;4927637;29;20059;-78
2023/09/17 04:07:53;;;;;;;10.45;7.85;;;;;;;;;;4916587;29;20114;-78
2023/09/17 04:10:19;;;;;;;9.43;7.82;;;;;;;;;;4925661;29;20537;-78
2023/09/17 04:12:44;;;;;;;11.48;9.32;;;;;;;;;;4932201;29;20039;-78
2023/09/17 04:15:16;;;;;;;10.32;8.23;;;;;;;;;;4930064;29;20034;-78
2023/09/17 04:17:42;;;;;;;10.77;7.50;;;;;;;;;;4928894;29;20102;-78
2023/09/17 04:20:13;;;;;;;8.15;7.20;;;;;;;;;;4934631;29;20098;-78
2023/09/17 04:22:38;;;;;;;8.13;6.32;;;;;;;;;;4935168;29;20429;-77
2023/09/17 04:25:04;;;;;;;7.38;5.95;;;;;;;;;;4932492;29;20028;-78
2023/09/17 04:27:30;;;;;;;6.70;5.90;;;;;;;;;;4929490;29;20258;-78
2023/09/17 04:29:56;;;;;;;6.32;4.65;;;;;;;;;;4928628;29;20084;-77
2023/09/17 04:32:21;;;;;;;5.38;4.43;;;;;;;;;;4919837;29;20123;-78
2023/09/17 04:34:46;;;;;;;8.57;6.32;;;;;;;;;;4928984;29;20019;-78
2023/09/17 04:37:12;;;;;;;9.40;7.57;;;;;;;;;;4933727;29;20087;-78
2023/09/17 04:39:37;;;;;;;10.55;7.55;;;;;;;;;;4932409;29;20405;-78
2023/09/17 04:42:03;;;;;;;10.30;8.80;;;;;;;;;;4927665;29;20401;-78
2023/09/17 04:44:28;;;;;;;9.98;8.52;;;;;;;;;;4931448;29;20118;-78
2023/09/17 04:46:54;;;;;;;9.05;7.18;;;;;;;;;;4927896;29;20028;-78
2023/09/17 04:49:21;;;;;;;10.93;8.68;;;;;;;;;;4931464;29;20487;-77
2023/09/17 04:51:47;;;;;;;8.93;7.57;;;;;;;;;;4934226;29;20059;-78
2023/09/17 04:54:12;;;;;;;9.73;7.35;;;;;;;;;;4926525;29;20115;-78
2023/09/17 04:56:37;;;;;;;10.65;8.40;;;;;;;;;;4927535;29;20032;-78
2023/09/17 04:59:03;;;;;;;10.68;7.57;;;;;;;;;;4929931;29;20028;-77
2023/09/17 05:01:29;;;;;;;9.52;7.90;;;;;;;;;;4925267;29;20032;-77
2023/09/17 05:03:54;;;;;;;11.65;7.88;;;;;;;;;;4929796;29;20673;-77
2023/09/17 05:06:20;;;;;;;10.57;7.63;;;;;;;;;;4928738;29;20032;-78
2023/09/17 05:08:45;;;;;;;9.68;7.70;;;;;;;;;;4915678;29;20024;-77
2023/09/17 05:11:11;;;;;;;9.10;6.97;;;;;;;;;;4920891;29;20036;-78
2023/09/17 05:13:37;;;;;;;10.00;6.90;;;;;;;;;;4930150;29;20083;-78
2023/09/17 05:16:03;;;;;;;10.02;7.53;;;;;;;;;;4935052;29;20396;-78
2023/09/17 05:18:28;;;;;;;9.93;7.65;;;;;;;;;;4930822;29;20031;-77
2023/09/17 05:20:54;;;;;;;9.05;7.03;;;;;;;;;;4929855;29;20039;-77
2023/09/17 05:23:21;;;;;;;10.60;8.45;;;;;;;;;;4922529;29;20467;-78
2023/09/17 05:25:50;;;;;;;8.95;7.15;;;;;;;;;;4928679;29;20111;-77
2023/09/17 05:28:15;;;;;;;8.80;7.38;;;;;;;;;;4920329;29;20551;-78
2023/09/17 05:30:41;;;;;;;7.25;6.03;;;;;;;;;;4933239;29;20180;-77
2023/09/17 05:33:07;;;;;;;9.23;7.80;;;;;;;;;;4929115;29;20734;-77
2023/09/17 05:35:34;;;;;;;9.70;6.93;;;;;;;;;;4928454;29;20028;-78
2023/09/17 05:37:59;;;;;;;8.27;7.05;;;;;;;;;;4931891;29;20032;-78
2023/09/17 05:40:24;;;;;;;10.10;7.80;;;;;;;;;;4912634;29;20417;-77
2023/09/17 05:42:50;;;;;;;10.43;7.43;;;;;;;;;;4927701;29;20389;-78
2023/09/17 05:45:15;;;;;;;9.38;7.07;;;;;;;;;;4928521;29;20028;-77
2023/09/17 05:47:41;;;;;;;10.77;7.57;;;;;;;;;;4946281;29;20036;-78
2023/09/17 05:50:07;;;;;;;9.32;7.93;;;;;;;;;;4925018;29;20032;-77
2023/09/17 05:52:34;;;;;;;9.40;7.93;;;;;;;;;;4927278;29;20040;-78
2023/09/17 05:55:03;;;;;;;9.60;6.82;;;;;;;;;;4929071;29;20400;-77
2023/09/17 05:57:29;;;;;;;10.00;6.82;;;;;;;;;;4927067;29;20436;-77
2023/09/17 05:59:54;;;;;;;9.60;7.43;;;;;;;;;;4932192;29;20040;-79
2023/09/17 06:02:20;;;;;;;7.53;6.68;;;;;;;;;;4928018;29;20119;-77
2023/09/17 06:04:47;;;;;;;9.65;7.32;;;;;;;;;;4932126;29;20032;-78
2023/09/17 06:07:14;;;;;;;8.80;7.60;;;;;;;;;;4911369;29;20508;-78
2023/09/17 06:09:39;;;;;;;9.32;7.45;;;;;;;;;;4912592;29;20114;-77
2023/09/17 06:12:05;;;;;;;11.95;9.35;;;;;;;;;;4932664;29;20098;-78
2023/09/17 06:14:30;;;;;;;10.68;9.35;;;;;;;;;;4928764;29;20028;-78
2023/09/17 06:16:55;;;;;;;9.45;8.13;;;;;;;;;;4928780;29;20032;-78
2023/09/17 06:19:21;;;;;;;10.15;8.57;;;;;;;;;;4923058;29;20024;-78
2023/09/17 06:21:46;;;;;;;10.15;7.88;;;;;;;;;;4928236;29;20024;-77
2023/09/17 06:24:11;;;;;;;8.65;7.55;;;;;;;;;;4930913;29;20393;-78
2023/09/17 06:26:36;;;;;;;7.87;6.87;;;;;;;;;;4928456;29;20694;-78
2023/09/17 06:29:02;;;;;;;10.07;7.43;;;;;;;;;;4933253;29;20298;-79
2023/09/17 06:31:27;;;;;;;8.73;7.38;;;;;;;;;;4926477;29;20042;-78
2023/09/17 06:33:53;;;;;;;8.40;6.78;;;;;;;;;;4927615;29;20032;-79
2023/09/17 06:36:21;;;;;;;9.27;6.85;;;;;;;;;;4921545;29;20389;-79
2023/09/17 06:38:46;;;;;;;7.03;6.32;;;;;;;;;;4928430;29;20070;-78
2023/09/17 06:41:12;;;;;;;8.90;7.32;;;;;;;;;;4933986;29;20024;-79
2023/09/17 06:43:38;;;;;;;7.95;7.10;;;;;;;;;;4931512;29;20445;-77
2023/09/17 06:46:03;;;;;;;8.18;7.35;;;;;;;;;;4932252;29;20024;-79
2023/09/17 06:48:28;;;;;;;8.90;6.50;;;;;;;;;;4928376;29;20408;-78
2023/09/17 06:50:54;;;;;;;7.00;5.70;;;;;;;;;;4931377;29;20376;-78
2023/09/17 06:53:19;;;;;;;6.95;5.95;;;;;;;;;;4930719;29;20035;-78
2023/09/17 06:55:44;;;;;;;12.20;5.97;;;;;;;;;;4927230;29;20042;-78
2023/09/17 06:58:09;;;;;;;8.50;6.40;;;;;;;;;;4926984;29;20295;-78
2023/09/17 07:00:35;;;;;;;6.75;5.75;;;;;;;;;;4925486;29;20371;-78
2023/09/17 07:03:00;;;;;;;8.65;5.90;;;;;;;;;;4921819;29;20028;-77
2023/09/17 07:05:26;;;;;;;8.98;5.72;;;;;;;;;;4928895;29;20044;-79
2023/09/17 07:07:51;;;;;;;7.82;5.88;;;;;;;;;;4928162;29;20032;-78
2023/09/17 07:10:17;;;;;;;7.20;5.88;;;;;;;;;;4933262;29;20036;-79
2023/09/17 07:12:43;;;;;;;7.20;6.20;;;;;;;;;;4927939;29;20111;-79
2023/09/17 07:15:10;;;;;;;7.13;5.75;;;;;;;;;;4928341;29;20046;-78
2023/09/17 07:17:35;;;;;;;10.73;5.60;;;;;;;;;;4913193;29;20051;-78
2023/09/17 07:20:01;;;;;;;9.48;5.60;;;;;;;;;;4928972;29;20392;-78
2023/09/17 07:22:26;;;;;;;7.45;5.53;;;;;;;;;;4928009;29;20032;-79
2023/09/17 07:24:56;;;;;;;9.03;5.93;;;;;;;;;;4928796;29;20504;-78
2023/09/17 07:27:21;;;;;;;7.15;5.68;;;;;;;;;;4928207;29;20870;-78
2023/09/17 07:29:48;;;;;;;8.60;5.03;;;;;;;;;;4926386;29;20140;-79
2023/09/17 07:32:13;;;;;;;9.63;6.38;;;;;;;;;;4918274;29;20028;-78
2023/09/17 07:34:38;;;;;;;7.43;5.53;;;;;;;;;;4936675;29;20412;-78
2023/09/17 07:37:04;;;;;;;8.77;5.53;;;;;;;;;;4937417;29;20034;-78
2023/09/17 07:39:29;;;;;;;7.18;5.47;;;;;;;;;;4934486;29;20284;-79
2023/09/17 07:41:54;;;;;;;7.60;5.33;;;;;;;;;;4926933;29;20051;-78
2023/09/17 07:44:20;;;;;;;7.00;5.68;;;;;;;;;;4932142;29;20271;-79
2023/09/17 07:46:45;;;;;;;7.20;5.70;;;;;;;;;;4931444;29;20031;-78
2023/09/17 07:49:10;;;;;;;6.33;5.03;;;;;;;;;;4930968;29;20044;-78
2023/09/17 07:51:36;;;;;;;5.72;4.90;;;;;;;;;;4931809;29;20346;-79
2023/09/17 07:54:01;;;;;;;7.33;5.40;;;;;;;;;;4930734;29;20047;-79
2023/09/17 07:56:26;;;;;;;5.93;4.90;;;;;;;;;;4930865;29;20825;-79
2023/09/17 07:58:51;;;;;;;5.38;4.32;;;;;;;;;;4930008;29;20038;-79
2023/09/17 08:01:16;;;;;;;5.23;3.93;;;;;;;;;;4931031;29;20039;-79
2023/09/17 08:03:42;;;;;;;6.65;3.95;;;;;;;;;;4933611;29;20032;-78
2023/09/17 08:06:07;;;;;;;8.03;4.07;;;;;;;;;;4935656;29;20098;-79
2023/09/17 08:08:32;;;;;;;5.90;3.95;;;;;;;;;;4933242;29;20047;-78
2023/09/17 08:10:57;;;;;;;5.20;3.95;;;;;;;;;;4935793;29;20028;-79
2023/09/17 08:13:23;;;;;;;5.75;3.50;;;;;;;;;;4928810;29;20040;-79
2023/09/17 08:15:50;;;;;;;6.15;3.90;;;;;;;;;;4931888;29;20122;-78
2023/09/17 08:18:15;;;;;;;5.10;3.83;;;;;;;;;;4931846;29;20040;-79
2023/09/17 08:20:41;;;;;;;4.72;3.80;;;;;;;;;;4933590;29;20042;-78
2023/09/17 08:23:06;;;;;;;4.78;3.40;;;;;;;;;;4931784;29;20039;-79
2023/09/17 08:25:33;;;;;;;6.27;3.93;;;;;;;;;;4930635;29;20083;-78
2023/09/17 08:27:59;;;;;;;5.65;3.60;;;;;;;;;;4926113;29;20283;-78
2023/09/17 08:30:24;;;;;;;5.63;3.80;;;;;;;;;;4926480;29;20051;-79
2023/09/17 08:32:49;;;;;;;6.75;3.97;;;;;;;;;;4934880;29;20028;-79
2023/09/17 08:35:14;;;;;;;6.18;3.85;;;;;;;;;;4935915;29;20091;-79
2023/09/17 08:37:40;;;;;;;4.77;3.60;;;;;;;;;;4934036;29;20110;-78
2023/09/17 08:40:09;;;;;;;4.88;3.45;;;;;;;;;;4933086;29;20338;-79
2023/09/17 08:42:35;;;;;;;7.72;4.30;;;;;;;;;;4924340;29;20086;-79
2023/09/17 08:45:00;;;;;;;7.30;3.30;;;;;;;;;;4925887;29;20111;-78
2023/09/17 08:47:25;;;;;;;8.38;4.10;;;;;;;;;;4923963;29;20423;-78
2023/09/17 08:49:51;;;;;;;6.60;4.00;;;;;;;;;;4927243;29;20032;-79
2023/09/17 08:52:17;;;;;;;6.32;3.83;;;;;;;;;;4926302;29;20660;-79
2023/09/17 08:54:42;;;;;;;4.95;3.67;;;;;;;;;;4924083;29;20057;-79
2023/09/17 08:57:10;;;;;;;7.25;4.30;;;;;;;;;;4922580;29;20051;-79
2023/09/17 08:59:38;;;;;;;4.57;3.58;;;;;;;;;;4931716;29;20059;-80
2023/09/17 09:02:07;;;;;;;5.47;3.30;;;;;;;;;;4932323;29;20031;-79
2023/09/17 09:04:34;;;;;;;4.85;3.70;;;;;;;;;;4927844;29;20460;-78
2023/09/17 09:07:00;;;;;;;6.35;3.67;;;;;;;;;;4913116;29;20036;-79
2023/09/17 09:09:26;;;;;;;5.90;3.78;;;;;;;;;;4918648;29;20040;-78
2023/09/17 09:11:52;;;;;;;5.90;3.08;;;;;;;;;;4924498;29;20020;-79
2023/09/17 09:14:17;;;;;;;4.70;3.28;;;;;;;;;;4931263;29;20027;-79
2023/09/17 09:16:44;;;;;;;5.47;3.33;;;;;;;;;;4924982;29;20519;-78
2023/09/17 09:19:09;;;;;;;6.18;3.92;;;;;;;;;;4931690;29;20507;-79
2023/09/17 09:21:35;;;;;;;6.10;3.38;;;;;;;;;;4925342;29;20094;-79
2023/09/17 09:24:01;;;;;;;5.35;3.30;;;;;;;;;;4928861;29;20034;-79
2023/09/17 09:26:33;;;;;;;4.22;3.28;;;;;;;;;;4930915;29;20416;-78
2023/09/17 09:28:59;;;;;;;4.10;3.25;;;;;;;;;;4932745;29;20091;-79
2023/09/17 09:31:26;;;;;;;5.18;3.70;;;;;;;;;;4930256;29;20126;-79
2023/09/17 09:33:51;;;;;;;3.90;2.75;;;;;;;;;;4931053;29;20036;-79
2023/09/17 09:36:18;;;;;;;3.97;2.90;;;;;;;;;;4930480;29;20042;-79
2023/09/17 09:38:44;;;;;;;5.25;3.22;;;;;;;;;;4925720;29;20036;-78
2023/09/17 09:41:10;;;;;;;4.07;3.17;;;;;;;;;;4932712;29;20051;-79
2023/09/17 09:43:35;;;;;;;5.65;2.97;;;;;;;;;;4933578;29;20057;-79
2023/09/17 09:46:02;;;;;;;5.60;3.13;;;;;;;;;;4930325;29;20869;-79
2023/09/17 09:48:28;;;;;;;5.20;2.80;;;;;;;;;;4930777;29;20032;-79
2023/09/17 09:50:53;;;;;;;5.03;3.17;;;;;;;;;;4927661;29;20416;-79
2023/09/17 09:53:19;;;;;;;5.60;3.25;;;;;;;;;;4925070;29;20051;-79
2023/09/17 09:55:44;;;;;;;4.53;2.70;;;;;;;;;;4925208;29;20091;-79
2023/09/17 09:58:10;;;;;;;5.07;2.67;;;;;;;;;;4934342;29;20488;-79
2023/09/17 10:00:35;;;;;;;3.63;2.70;;;;;;;;;;4927595;29;20105;-79
2023/09/17 10:03:01;;;;;;;4.10;2.90;;;;;;;;;;4930902;29;20031;-79
2023/09/17 10:05:37;;;;;;;3.90;2.47;;;;;;;;;;4909702;29;20461;-79
2023/09/17 10:08:06;;;;;;;4.00;2.90;;;;;;;;;;4931145;29;20032;-79
2023/09/17 10:10:31;;;;;;;3.75;2.58;;;;;;;;;;4927805;29;20039;-79
2023/09/17 10:12:57;;;;;;;4.05;2.63;;;;;;;;;;4932893;29;20038;-79
2023/09/17 10:15:22;;;;;;;3.45;2.40;;;;;;;;;;4929328;29;20083;-79
2023/09/17 10:17:48;;;;;;;6.67;2.67;;;;;;;;;;4929976;29;20059;-79
2023/09/17 10:20:15;;;;;;;4.18;2.15;;;;;;;;;;4926126;29;20284;-79
2023/09/17 10:22:41;;;;;;;3.65;2.75;;;;;;;;;;4928384;29;20094;-79
2023/09/17 10:25:08;;;;;;;3.45;2.30;;;;;;;;;;4929795;29;20027;-80
2023/09/17 10:27:35;;;;;;;3.25;2.30;;;;;;;;;;4931484;29;20036;-79
2023/09/17 10:30:03;;;;;;;3.25;2.28;;;;;;;;;;4923953;29;20031;-79
2023/09/17 10:32:29;;;;;;;4.13;2.50;;;;;;;;;;4928615;29;20042;-79
2023/09/17 10:34:57;;;;;;;3.72;2.55;;;;;;;;;;4928385;29;20039;-79
2023/09/17 10:37:23;;;;;;;3.45;2.47;;;;;;;;;;4931488;29;20063;-79
2023/09/17 10:39:48;;;;;;;3.53;2.67;;;;;;;;;;4929065;29;20083;-79
2023/09/17 10:42:15;;;;;;;4.68;2.50;;;;;;;;;;4927811;29;20083;-79
2023/09/17 10:44:42;;;;;;;4.07;2.53;;;;;;;;;;4931633;29;20440;-79
2023/09/17 10:47:09;;;;;;;4.57;2.70;;;;;;;;;;4928633;29;20091;-79
2023/09/17 10:49:36;;;;;;;2.72;2.13;;;;;;;;;;4923615;29;20396;-79
2023/09/17 10:52:02;;;;;;;4.40;2.30;;;;;;;;;;4929384;29;20572;-79
2023/09/17 10:54:27;;;;;;;4.15;2.50;;;;;;;;;;4929898;29;20068;-79
2023/09/17 10:56:54;;;;;;;3.40;2.43;;;;;;;;;;4929874;29;20087;-79
2023/09/17 10:59:19;;;;;;;3.55;2.25;;;;;;;;;;4923166;29;20044;-79
2023/09/17 11:01:46;;;;;;;4.88;2.30;;;;;;;;;;4923410;29;20083;-79
2023/09/17 11:04:13;;;;;;;4.28;2.30;;;;;;;;;;4934977;29;20034;-79
2023/09/17 11:06:39;;;;;;;3.78;2.47;;;;;;;;;;4934241;29;20528;-79
2023/09/17 11:09:05;;;;;;;4.15;2.22;;;;;;;;;;4928598;29;20087;-79
2023/09/17 11:11:31;;;;;;;3.58;2.28;;;;;;;;;;4931529;29;20043;-78
2023/09/17 11:13:57;;;;;;;4.18;2.42;;;;;;;;;;4930902;29;20063;-79
2023/09/17 11:16:26;;;;;;;4.40;2.10;;;;;;;;;;4912575;29;20516;-79
2023/09/17 11:19:10;;;;;;;3.47;2.00;;;;;;;;;;4920261;29;20492;-79
2023/09/17 11:21:36;;;;;;;5.95;1.90;;;;;;;;;;4932635;29;20024;-79
2023/09/17 11:24:05;;;;;;;2.88;2.00;;;;;;;;;;4927087;29;20507;-79
2023/09/17 11:26:31;;;;;;;3.50;1.92;;;;;;;;;;4928285;29;20127;-79
2023/09/17 11:28:57;;;;;;;4.47;2.30;;;;;;;;;;4931181;29;20040;-79
2023/09/17 11:31:28;;;;;;;4.00;2.00;;;;;;;;;;4927232;29;20058;-78
2023/09/17 11:33:54;;;;;;;3.05;1.90;;;;;;;;;;4931125;29;20039;-80
2023/09/17 11:36:20;;;;;;;4.10;2.10;;;;;;;;;;4932580;29;20062;-79
2023/09/17 11:38:48;;;;;;;3.45;2.20;;;;;;;;;;4928316;29;20505;-79
2023/09/17 11:41:21;;;;;;;4.07;2.08;;;;;;;;;;4932153;29;20044;-79
2023/09/17 11:43:47;;;;;;;4.85;1.90;;;;;;;;;;4929595;29;20547;-79
2023/09/17 11:46:13;;;;;;;3.15;2.08;;;;;;;;;;4933813;29;20054;-79
2023/09/17 11:48:38;;;;;;;3.80;2.10;;;;;;;;;;4934717;29;20114;-78
2023/09/17 11:51:16;;;;;;;6.53;2.13;;;;;;;;;;4935753;29;20040;-79
2023/09/17 11:53:57;;;;;;;4.32;1.80;;;;;;;;;;4931213;29;20459;-79
2023/09/17 11:56:23;;;;;;;3.83;1.67;;;;;;;;;;4930107;29;20497;-79
2023/09/17 11:58:58;;;;;;;2.70;1.85;;;;;;;;;;4931531;29;20051;-80
2023/09/17 12:01:24;;;;;;;3.10;1.98;;;;;;;;;;4933997;29;20032;-80
2023/09/17 12:03:49;;;;;;;3.17;2.00;;;;;;;;;;4931876;29;20035;-80
2023/09/17 12:06:17;;;;;;;3.75;2.25;;;;;;;;;;4934326;29;20381;-79
2023/09/17 12:08:43;;;;;;;3.45;1.98;;;;;;;;;;4931333;29;20051;-79
2023/09/17 12:11:18;;;;;;;2.80;1.63;;;;;;;;;;4927576;29;20046;-80
2023/09/17 12:13:43;;;;;;;3.22;2.05;;;;;;;;;;4929008;29;20032;-80
2023/09/17 12:16:09;;;;;;;3.20;2.00;;;;;;;;;;4925685;29;20036;-79
2023/09/17 12:18:34;;;;;;;3.93;1.90;;;;;;;;;;4932483;29;20197;-79
2023/09/17 12:21:01;;;;;;;3.07;1.80;;;;;;;;;;4932334;29;20283;-79
2023/09/17 12:23:44;;;;;;;3.85;2.08;;;;;;;;;;4930181;29;20071;-79
2023/09/17 12:26:09;;;;;;;3.80;2.10;;;;;;;;;;4931677;29;20052;-79
2023/09/17 12:28:35;;;;;;;2.67;1.67;;;;;;;;;;4934668;29;20024;-79
2023/09/17 12:31:02;;;;;;;3.15;2.13;;;;;;;;;;4936310;29;20731;-79
2023/09/17 12:33:27;;;;;;;2.70;1.80;;;;;;;;;;4929431;29;20036;-78
2023/09/17 12:35:52;;;;;;;3.67;2.13;;;;;;;;;;4933433;29;20050;-80
2023/09/17 12:38:18;;;;;;;2.70;1.77;;;;;;;;;;4929133;29;20086;-79
2023/09/17 12:40:43;;;;;;;2.30;1.60;;;;;;;;;;4929104;29;20040;-79
2023/09/17 12:43:08;;;;;;;3.10;1.70;;;;;;;;;;4932913;29;20118;-79
2023/09/17 12:45:34;;;;;;;2.50;1.80;;;;;;;;;;4935509;29;20106;-79
2023/09/17 12:47:59;;;;;;;2.88;1.88;;;;;;;;;;4934759;29;20023;-78
2023/09/17 12:50:26;;;;;;;3.83;2.10;;;;;;;;;;4937427;29;20032;-79
2023/09/17 12:52:51;;;;;;;2.42;1.70;;;;;;;;;;4931976;29;20035;-79
2023/09/17 12:55:17;;;;;;;2.50;1.57;;;;;;;;;;4933563;29;20036;-79
2023/09/17 12:57:47;;;;;;;2.72;1.90;;;;;;;;;;4929707;29;20039;-80
2023/09/17 13:00:13;;;;;;;2.30;1.60;;;;;;;;;;4933595;29;20027;-79
2023/09/17 13:02:39;;;;;;;2.50;1.48;;;;;;;;;;4933366;29;20024;-79
2023/09/17 13:05:04;;;;;;;2.95;1.67;;;;;;;;;;4928811;29;20464;-79
2023/09/17 13:07:30;;;;;;;3.40;1.92;;;;;;;;;;4929379;29;20568;-79
2023/09/17 13:09:56;;;;;;;2.67;1.60;;;;;;;;;;4932903;29;20040;-79
2023/09/17 13:12:27;;;;;;;3.38;1.63;;;;;;;;;;4932859;29;20122;-81
2023/09/17 13:14:53;;;;;;;2.15;1.48;;;;;;;;;;4933329;29;20035;-80
2023/09/17 13:17:19;;;;;;;2.22;1.50;;;;;;;;;;4933929;29;20102;-80
2023/09/17 13:19:44;;;;;;;2.90;1.60;;;;;;;;;;4927855;29;20100;-79
2023/09/17 13:22:11;;;;;;;4.22;1.77;;;;;;;;;;4933098;29;20032;-84
2023/09/17 13:24:36;;;;;;;2.83;1.55;;;;;;;;;;4946091;29;20042;-85
2023/09/17 13:27:03;;;;;;;3.38;1.65;;;;;;;;;;4951691;29;20028;-86
2023/09/17 13:29:36;;;;;;;3.08;1.60;;;;;;;;;;4938914;29;20035;-85
2023/09/17 13:32:02;;;;;;;2.45;1.60;;;;;;;;;;4957933;29;20032;-84
2023/09/17 13:34:28;;;;;;;3.17;1.77;;;;;;;;;;4932718;29;20056;-84
2023/09/17 13:36:54;;;;;;;2.95;1.58;;;;;;;;;;4951519;29;20032;-84
2023/09/17 13:39:19;;;;;;;5.13;1.55;;;;;;;;;;4948617;29;20035;-83
2023/09/17 13:41:45;;;;;;;2.22;1.52;;;;;;;;;;4949147;29;20040;-85
2023/09/17 13:44:10;;;;;;;2.42;1.60;;;;;;;;;;4932023;29;20043;-87
2023/09/17 13:46:35;;;;;;;3.80;1.67;;;;;;;;;;4927576;29;20052;-85
2023/09/17 13:49:00;;;;;;;2.30;1.60;;;;;;;;;;4945121;29;20552;-86
2023/09/17 13:51:26;;;;;;;2.30;1.47;;;;;;;;;;4947782;29;20448;-87
2023/09/17 13:53:51;;;;;;;2.47;1.60;;;;;;;;;;4933079;29;20044;-86
2023/09/17 13:56:16;;;;;;;1.80;1.40;;;;;;;;;;4947370;29;20039;-85
2023/09/17 13:58:41;;;;;;;2.57;1.50;;;;;;;;;;4944400;29;20055;-85
2023/09/17 14:01:06;;;;;;;2.20;1.40;;;;;;;;;;4945771;29;20264;-85
2023/09/17 14:03:32;;;;;;;2.10;1.40;;;;;;;;;;4937953;29;20304;-87
2023/09/17 14:05:57;;;;;;;2.07;1.47;;;;;;;;;;4952556;29;20040;-86
2023/09/17 14:08:23;;;;;;;1.75;1.30;;;;;;;;;;4932682;29;20031;-83
2023/09/17 14:10:48;;;;;;;2.23;1.30;;;;;;;;;;4944648;29;20039;-83
2023/09/17 14:13:15;;;;;;;2.03;1.20;;;;;;;;;;4947415;29;20050;-83
2023/09/17 14:15:40;;;;;;;3.22;1.48;;;;;;;;;;4924262;29;20067;-83
2023/09/17 14:18:05;;;;;;;2.20;1.40;;;;;;;;;;4924798;29;20032;-85
2023/09/17 14:20:31;;;;;;;3.30;1.47;;;;;;;;;;4942645;29;20425;-85
2023/09/17 14:22:56;;;;;;;2.28;1.70;;;;;;;;;;4926577;29;20028;-84
2023/09/17 14:25:21;;;;;;;5.93;2.33;;;;;;;;;;4941621;29;20035;-86
2023/09/17 14:27:47;;;;;;;2.03;1.60;;;;;;;;;;4925185;29;20314;-86
2023/09/17 14:30:16;;;;;;;2.22;1.38;;;;;;;;;;4938930;29;20039;-84
2023/09/17 14:32:41;;;;;;;2.47;1.60;;;;;;;;;;4939977;29;20028;-84
2023/09/17 14:35:07;;;;;;;1.87;1.40;;;;;;;;;;4929077;29;20095;-83